createdAt,value
2022-11-24T00:01:29.642Z,6.93
2022-11-24T00:04:01.566Z,4.23
2022-11-24T00:06:29.948Z,4.80
2022-11-24T00:08:57.312Z,4.40
2022-11-24T00:11:31.964Z,4.90
2022-11-24T00:13:59.656Z,4.00
2022-11-24T00:16:30.402Z,4.57
2022-11-24T00:18:58.526Z,4.40
2022-11-24T00:21:26.525Z,4.70
2022-11-24T00:23:53.462Z,4.53
2022-11-24T00:26:22.317Z,3.90
2022-11-24T00:28:51.016Z,4.13
2022-11-24T00:31:27.658Z,4.93
2022-11-24T00:33:56.557Z,4.33
2022-11-24T00:36:25.071Z,3.70
2022-11-24T00:38:56.229Z,4.10
2022-11-24T00:41:24.584Z,4.00
2022-11-24T00:43:51.657Z,4.00
2022-11-24T00:46:18.646Z,4.60
2022-11-24T00:48:46.258Z,4.67
2022-11-24T00:51:15.271Z,4.63
2022-11-24T00:53:42.790Z,4.23
2022-11-24T00:56:10.401Z,3.80
2022-11-24T00:58:37.264Z,4.33
2022-11-24T01:01:09.115Z,4.37
2022-11-24T01:03:35.898Z,5.23
2022-11-24T01:06:11.980Z,3.20
2022-11-24T01:08:39.706Z,5.43
2022-11-24T01:11:10.496Z,4.20
2022-11-24T01:13:37.818Z,3.90
2022-11-24T01:16:04.722Z,5.03
2022-11-24T01:18:31.600Z,4.40
2022-11-24T01:20:58.412Z,4.83
2022-11-24T01:23:25.077Z,4.30
2022-11-24T01:25:51.672Z,4.60
2022-11-24T01:28:18.311Z,4.53
2022-11-24T01:30:47.107Z,3.87
2022-11-24T01:33:13.875Z,4.50
2022-11-24T01:35:40.619Z,4.20
2022-11-24T01:38:07.270Z,5.50
2022-11-24T01:40:33.899Z,5.07
2022-11-24T01:43:00.534Z,5.93
2022-11-24T01:45:40.605Z,5.20
2022-11-24T01:48:15.794Z,4.17
2022-11-24T01:50:43.479Z,3.80
2022-11-24T01:53:10.857Z,4.90
2022-11-24T01:55:39.610Z,4.97
2022-11-24T01:58:08.188Z,5.00
2022-11-24T02:00:37.832Z,4.97
2022-11-24T02:03:04.535Z,5.10
2022-11-24T02:05:41.151Z,4.23
2022-11-24T02:08:31.677Z,4.47
2022-11-24T02:10:58.519Z,4.70
2022-11-24T02:13:25.294Z,4.90
2022-11-24T02:15:53.223Z,5.47
2022-11-24T02:18:19.956Z,4.80
2022-11-24T02:20:46.578Z,4.97
2022-11-24T02:23:13.132Z,4.67
2022-11-24T02:25:48.409Z,4.13
2022-11-24T02:28:19.333Z,4.13
2022-11-24T02:30:46.662Z,5.10
2022-11-24T02:33:13.866Z,4.83
2022-11-24T02:35:41.131Z,4.17
2022-11-24T02:38:13.576Z,4.53
2022-11-24T02:40:43.258Z,4.03
2022-11-24T02:43:16.114Z,3.80
2022-11-24T02:45:42.747Z,4.70
2022-11-24T02:48:09.457Z,4.40
2022-11-24T02:50:36.431Z,4.23
2022-11-24T02:53:03.012Z,4.47
2022-11-24T02:55:29.799Z,4.00
2022-11-24T02:57:56.435Z,4.00
2022-11-24T03:00:23.210Z,4.57
2022-11-24T03:02:50.255Z,4.07
2022-11-24T03:05:17.293Z,4.73
2022-11-24T03:07:44.009Z,4.20
2022-11-24T03:10:10.844Z,4.50
2022-11-24T03:12:37.457Z,3.83
2022-11-24T03:15:05.439Z,4.77
2022-11-24T03:17:32.099Z,4.33
2022-11-24T03:20:04.571Z,4.43
2022-11-24T03:22:31.913Z,5.70
2022-11-24T03:24:59.201Z,5.07
2022-11-24T03:27:25.865Z,3.60
2022-11-24T03:29:52.535Z,5.43
2022-11-24T03:32:19.177Z,4.20
2022-11-24T03:34:45.788Z,4.53
2022-11-24T03:37:12.490Z,4.30
2022-11-24T03:39:39.156Z,4.10
2022-11-24T03:42:05.788Z,3.90
2022-11-24T03:44:32.639Z,4.60
2022-11-24T03:46:59.535Z,4.23
2022-11-24T03:49:26.163Z,4.37
2022-11-24T03:51:52.787Z,5.17
2022-11-24T03:54:19.465Z,4.60
2022-11-24T03:56:46.089Z,5.70
2022-11-24T03:59:12.732Z,3.60
2022-11-24T04:01:39.478Z,4.17
2022-11-24T04:04:06.165Z,4.17
2022-11-24T04:06:32.818Z,4.57
2022-11-24T04:09:00.487Z,5.17
2022-11-24T04:11:45.583Z,4.20
2022-11-24T04:14:13.921Z,5.50
2022-11-24T04:16:41.120Z,4.63
2022-11-24T04:19:07.911Z,4.10
2022-11-24T04:21:34.562Z,7.70
2022-11-24T04:24:01.178Z,4.40
2022-11-24T04:26:28.631Z,16.30
2022-11-24T04:28:55.266Z,16.37
2022-11-24T04:31:21.876Z,8.50
2022-11-24T04:33:48.525Z,6.23
2022-11-24T04:36:15.189Z,5.60
2022-11-24T04:39:24.689Z,4.47
2022-11-24T04:41:28.423Z,5.33
2022-11-24T04:43:55.055Z,5.20
2022-11-24T04:46:21.724Z,5.10
2022-11-24T04:48:48.371Z,6.23
2022-11-24T04:51:15.732Z,4.90
2022-11-24T04:53:42.414Z,4.97
2022-11-24T04:56:09.573Z,4.27
2022-11-24T04:58:36.435Z,5.67
2022-11-24T05:01:08.003Z,4.93
2022-11-24T05:03:36.030Z,4.70
2022-11-24T05:06:03.017Z,4.57
2022-11-24T05:08:29.800Z,4.33
2022-11-24T05:10:56.474Z,4.70
2022-11-24T05:13:23.202Z,4.77
2022-11-24T05:15:49.879Z,5.00
2022-11-24T05:18:16.612Z,4.50
2022-11-24T05:20:46.377Z,5.20
2022-11-24T05:23:12.992Z,5.63
2022-11-24T05:25:44.839Z,4.60
2022-11-24T05:28:14.057Z,5.10
2022-11-24T05:30:41.177Z,5.30
2022-11-24T05:33:11.499Z,5.40
2022-11-24T05:35:38.177Z,5.00
2022-11-24T05:38:04.969Z,6.43
2022-11-24T05:40:32.377Z,4.30
2022-11-24T05:42:58.995Z,4.97
2022-11-24T05:45:25.721Z,5.30
2022-11-24T05:47:53.149Z,5.63
2022-11-24T05:50:21.580Z,5.23
2022-11-24T05:52:49.084Z,4.30
2022-11-24T05:55:16.176Z,5.20
2022-11-24T05:57:43.032Z,4.30
2022-11-24T06:00:11.334Z,5.27
2022-11-24T06:02:38.171Z,5.17
2022-11-24T06:05:05.171Z,6.07
2022-11-24T06:07:31.863Z,5.70
2022-11-24T06:09:58.590Z,6.63
2022-11-24T06:12:25.357Z,4.70
2022-11-24T06:14:52.175Z,4.50
2022-11-24T06:17:18.797Z,6.00
2022-11-24T06:19:47.813Z,5.30
2022-11-24T06:22:14.936Z,6.33
2022-11-24T06:24:41.535Z,5.40
2022-11-24T06:27:08.361Z,5.77
2022-11-24T06:29:34.967Z,6.23
2022-11-24T06:32:01.677Z,5.63
2022-11-24T06:34:28.352Z,5.67
2022-11-24T06:36:54.952Z,5.30
2022-11-24T06:39:21.559Z,5.40
2022-11-24T06:41:50.451Z,7.40
2022-11-24T06:44:17.086Z,4.57
2022-11-24T06:46:44.196Z,4.40
2022-11-24T06:49:10.933Z,5.17
2022-11-24T06:51:37.698Z,4.83
2022-11-24T06:54:07.685Z,4.67
2022-11-24T06:56:34.767Z,4.50
2022-11-24T06:59:02.283Z,5.20
2022-11-24T07:01:30.258Z,4.93
2022-11-24T07:03:57.614Z,4.40
2022-11-24T07:06:26.057Z,5.10
2022-11-24T07:08:53.160Z,4.33
2022-11-24T07:11:22.443Z,5.43
2022-11-24T07:13:56.491Z,5.30
2022-11-24T07:16:26.808Z,5.10
2022-11-24T07:18:54.248Z,5.30
2022-11-24T07:21:22.839Z,4.77
2022-11-24T07:23:50.740Z,5.43
2022-11-24T07:26:18.290Z,4.50
2022-11-24T07:28:45.586Z,4.20
2022-11-24T07:31:15.099Z,5.40
2022-11-24T07:33:42.230Z,5.53
2022-11-24T07:36:09.483Z,5.27
2022-11-24T07:38:36.370Z,5.80
2022-11-24T07:41:09.551Z,6.20
2022-11-24T07:43:37.676Z,5.10
2022-11-24T07:46:06.084Z,5.40
2022-11-24T07:48:33.240Z,5.53
2022-11-24T07:51:00.503Z,6.07
2022-11-24T07:53:28.077Z,6.93
2022-11-24T07:55:56.592Z,5.90
2022-11-24T07:58:25.532Z,6.73
2022-11-24T08:00:55.782Z,5.80
2022-11-24T08:03:23.145Z,6.40
2022-11-24T08:06:23.222Z,6.23
2022-11-24T08:08:46.888Z,6.33
2022-11-24T08:11:17.075Z,6.30
2022-11-24T08:13:44.547Z,6.20
2022-11-24T08:16:14.849Z,5.90
2022-11-24T08:18:42.430Z,7.53
2022-11-24T08:21:13.282Z,7.00
2022-11-24T08:23:41.258Z,6.60
2022-11-24T08:26:11.012Z,5.50
2022-11-24T08:28:38.202Z,8.60
2022-11-24T08:31:07.193Z,5.77
2022-11-24T08:33:33.798Z,7.30
2022-11-24T08:36:09.164Z,7.07
2022-11-24T08:38:36.163Z,6.67
2022-11-24T08:41:05.314Z,7.60
2022-11-24T08:43:32.535Z,6.83
2022-11-24T08:46:01.303Z,7.10
2022-11-24T08:48:28.968Z,6.60
2022-11-24T08:50:56.112Z,7.23
2022-11-24T08:53:22.891Z,8.17
2022-11-24T08:55:49.501Z,7.40
2022-11-24T08:58:16.724Z,6.97
2022-11-24T09:00:44.044Z,7.37
2022-11-24T09:03:12.058Z,7.00
2022-11-24T09:05:54.191Z,6.83
2022-11-24T09:08:20.801Z,6.60
2022-11-24T09:10:47.608Z,7.60
2022-11-24T09:13:14.473Z,8.27
2022-11-24T09:15:41.089Z,6.73
2022-11-24T09:18:07.782Z,6.33
2022-11-24T09:20:34.869Z,7.70
2022-11-24T09:23:01.514Z,7.53
2022-11-24T09:25:28.140Z,6.80
2022-11-24T09:27:54.946Z,6.77
2022-11-24T09:30:23.100Z,6.70
2022-11-24T09:32:49.703Z,6.07
2022-11-24T09:35:16.473Z,7.20
2022-11-24T09:37:45.077Z,8.13
2022-11-24T09:40:16.701Z,7.03
2022-11-24T09:43:27.900Z,8.83
2022-11-24T09:46:06.024Z,6.87
2022-11-24T09:48:40.939Z,7.53
2022-11-24T09:51:12.507Z,8.13
2022-11-24T09:54:05.269Z,6.20
2022-11-24T09:56:35.496Z,7.30
2022-11-24T09:59:20.749Z,9.03
2022-11-24T10:01:48.701Z,8.10
2022-11-24T10:04:28.577Z,10.40
2022-11-24T10:07:14.718Z,9.37
2022-11-24T10:09:57.582Z,7.50
2022-11-24T10:13:00.057Z,9.60
2022-11-24T10:15:54.484Z,7.00
2022-11-24T10:18:27.941Z,7.33
2022-11-24T10:21:08.441Z,7.00
2022-11-24T10:24:08.907Z,6.20
2022-11-24T10:26:40.842Z,6.87
2022-11-24T10:29:26.186Z,8.20
2022-11-24T10:31:56.263Z,6.77
2022-11-24T10:34:33.606Z,7.00
2022-11-24T10:37:06.071Z,7.17
2022-11-24T10:39:58.660Z,7.53
2022-11-24T10:42:29.474Z,6.00
2022-11-24T10:45:13.841Z,6.20
2022-11-24T10:47:41.738Z,6.40
2022-11-24T10:50:23.716Z,5.60
2022-11-24T10:53:24.592Z,6.80
2022-11-24T10:55:57.198Z,5.63
2022-11-24T10:58:26.742Z,6.90
2022-11-24T11:00:54.769Z,6.60
2022-11-24T11:03:24.566Z,6.23
2022-11-24T11:06:10.182Z,6.37
2022-11-24T11:08:36.830Z,6.47
2022-11-24T11:11:22.598Z,6.87
2022-11-24T11:14:01.700Z,5.00
2022-11-24T11:16:43.782Z,6.90
2022-11-24T11:19:49.453Z,6.40
2022-11-24T11:22:28.063Z,6.13
2022-11-24T11:25:07.300Z,5.83
2022-11-24T11:27:34.094Z,6.20
2022-11-24T11:35:50.035Z,8.20
2022-11-24T11:38:17.021Z,5.57
2022-11-24T11:40:43.855Z,5.53
2022-11-24T11:43:24.353Z,5.97
2022-11-24T11:46:03.505Z,6.20
2022-11-24T11:48:42.339Z,5.63
2022-11-24T11:51:41.792Z,7.83
2022-11-24T11:54:38.076Z,5.87
2022-11-24T11:57:18.258Z,5.90
2022-11-24T12:00:21.888Z,6.07
2022-11-24T12:03:04.059Z,6.20
2022-11-24T12:05:51.712Z,6.77
2022-11-24T12:08:44.009Z,6.10
2022-11-24T12:11:41.843Z,7.27
2022-11-24T12:14:20.776Z,6.70
2022-11-24T12:17:13.593Z,8.77
2022-11-24T12:20:11.412Z,6.83
2022-11-24T12:22:50.421Z,6.07
2022-11-24T12:25:20.507Z,6.63
2022-11-24T12:28:15.410Z,6.10
2022-11-24T12:31:06.442Z,5.87
2022-11-24T12:34:01.294Z,7.03
2022-11-24T12:36:56.251Z,5.33
2022-11-24T12:39:36.040Z,5.57
2022-11-24T12:42:33.901Z,6.57
2022-11-24T12:45:09.378Z,6.00
2022-11-24T12:47:45.600Z,5.97
2022-11-24T12:50:14.589Z,4.43
2022-11-24T12:52:54.156Z,5.70
2022-11-24T12:55:25.412Z,4.93
2022-11-24T12:58:17.966Z,4.90
2022-11-24T13:01:10.335Z,6.87
2022-11-24T13:04:17.033Z,5.23
2022-11-24T13:06:59.645Z,5.00
2022-11-24T13:09:26.649Z,4.67
2022-11-24T13:12:05.167Z,4.97
2022-11-24T13:14:34.100Z,4.93
2022-11-24T13:17:42.095Z,5.00
2022-11-24T13:19:51.001Z,4.57
2022-11-24T13:22:25.937Z,4.57
2022-11-24T13:25:25.185Z,4.50
2022-11-24T13:27:53.859Z,5.27
2022-11-24T13:30:35.530Z,4.67
2022-11-24T13:33:16.172Z,4.97
2022-11-24T13:36:04.165Z,4.73
2022-11-24T13:38:50.804Z,5.30
2022-11-24T13:41:32.657Z,4.83
2022-11-24T13:44:17.459Z,5.70
2022-11-24T13:47:42.531Z,5.63
2022-11-24T13:50:11.000Z,6.77
2022-11-24T13:52:39.934Z,5.70
2022-11-24T13:55:12.273Z,5.00
2022-11-24T13:57:45.030Z,7.00
2022-11-24T14:00:34.982Z,4.90
2022-11-24T14:03:06.978Z,4.47
2022-11-24T14:05:38.266Z,4.77
2022-11-24T14:08:07.518Z,6.50
2022-11-24T14:10:37.691Z,5.30
2022-11-24T14:13:23.544Z,5.60
2022-11-24T14:16:16.494Z,4.37
2022-11-24T14:18:48.454Z,4.97
2022-11-24T14:21:38.101Z,6.70
2022-11-24T14:24:25.080Z,4.23
2022-11-24T14:26:51.939Z,5.43
2022-11-24T14:29:21.603Z,6.87
2022-11-24T14:31:55.442Z,7.27
2022-11-24T14:34:24.673Z,5.23
2022-11-24T14:36:54.625Z,5.57
2022-11-24T14:39:23.108Z,6.77
2022-11-24T14:42:05.064Z,5.90
2022-11-24T14:44:40.580Z,4.30
2022-11-24T14:47:25.819Z,5.20
2022-11-24T14:49:57.460Z,4.67
2022-11-24T14:52:25.380Z,9.40
2022-11-24T14:55:03.966Z,5.83
2022-11-24T14:57:44.683Z,4.80
2022-11-24T15:00:19.927Z,6.33
2022-11-24T15:02:53.437Z,6.33
2022-11-24T15:05:22.758Z,5.80
2022-11-24T15:07:52.130Z,5.07
2022-11-24T15:10:34.601Z,4.83
2022-11-24T15:13:04.018Z,5.40
2022-11-24T15:15:34.667Z,4.93
2022-11-24T15:18:03.135Z,4.90
2022-11-24T15:20:44.459Z,5.47
2022-11-24T15:23:23.240Z,4.80
2022-11-24T15:26:17.456Z,5.10
2022-11-24T15:28:46.933Z,5.83
2022-11-24T15:31:14.261Z,6.40
2022-11-24T15:33:42.342Z,4.90
2022-11-24T15:36:09.146Z,5.13
2022-11-24T15:38:35.786Z,7.73
2022-11-24T15:41:02.511Z,4.40
2022-11-24T15:43:34.685Z,6.20
2022-11-24T15:46:03.132Z,5.77
2022-11-24T15:48:30.594Z,4.53
2022-11-24T15:50:58.605Z,5.70
2022-11-24T15:53:43.191Z,4.77
2022-11-24T15:56:23.986Z,5.07
2022-11-24T15:58:50.870Z,4.90
2022-11-24T16:01:17.693Z,5.67
2022-11-24T16:03:47.341Z,6.50
2022-11-24T16:06:23.689Z,4.30
2022-11-24T16:08:51.091Z,5.10
2022-11-24T16:11:17.711Z,4.57
2022-11-24T16:13:50.093Z,4.80
2022-11-24T16:16:19.408Z,4.20
2022-11-24T16:18:46.318Z,6.20
2022-11-24T16:21:12.973Z,5.63
2022-11-24T16:23:40.137Z,5.63
2022-11-24T16:26:07.170Z,6.33
2022-11-24T16:28:33.967Z,5.50
2022-11-24T16:31:00.575Z,5.70
2022-11-24T16:33:29.437Z,4.97
2022-11-24T16:35:56.246Z,6.00
2022-11-24T16:38:22.981Z,6.30
2022-11-24T16:40:54.294Z,6.40
2022-11-24T16:43:21.231Z,6.27
2022-11-24T16:46:08.613Z,8.20
2022-11-24T16:48:38.257Z,7.50
2022-11-24T16:51:06.853Z,5.90
2022-11-24T16:53:33.546Z,7.13
2022-11-24T16:56:00.293Z,7.33
2022-11-24T16:58:26.885Z,7.87
2022-11-24T17:00:53.630Z,7.63
2022-11-24T17:03:20.455Z,6.60
2022-11-24T17:05:58.264Z,7.30
2022-11-24T17:08:24.906Z,7.57
2022-11-24T17:10:51.748Z,6.13
2022-11-24T17:13:18.368Z,6.37
2022-11-24T17:15:49.670Z,7.60
2022-11-24T17:18:26.583Z,6.00
2022-11-24T17:20:56.650Z,6.90
2022-11-24T17:23:23.284Z,6.07
2022-11-24T17:25:49.977Z,7.10
2022-11-24T17:28:16.676Z,6.30
2022-11-24T17:30:43.360Z,7.10
2022-11-24T17:33:09.971Z,5.50
2022-11-24T17:35:36.979Z,7.53
2022-11-24T17:38:03.921Z,7.67
2022-11-24T17:40:30.702Z,7.17
2022-11-24T17:42:59.324Z,7.40
2022-11-24T17:45:27.069Z,6.93
2022-11-24T17:47:53.801Z,7.77
2022-11-24T17:50:25.380Z,7.03
2022-11-24T17:52:53.157Z,6.60
2022-11-24T17:55:19.908Z,7.43
2022-11-24T17:57:46.540Z,7.80
2022-11-24T18:00:13.923Z,6.17
2022-11-24T18:02:40.619Z,7.13
2022-11-24T18:05:07.619Z,5.53
2022-11-24T18:07:36.655Z,7.00
2022-11-24T18:10:04.303Z,7.43
2022-11-24T18:12:31.955Z,13.50
2022-11-24T18:14:58.610Z,8.27
2022-11-24T18:17:25.244Z,8.57
2022-11-24T18:19:51.925Z,7.67
2022-11-24T18:22:20.965Z,7.40
2022-11-24T18:24:50.390Z,8.17
2022-11-24T18:27:16.984Z,7.47
2022-11-24T18:29:43.678Z,8.20
2022-11-24T18:32:10.385Z,7.93
2022-11-24T18:34:37.588Z,8.20
2022-11-24T18:37:04.429Z,7.53
2022-11-24T18:39:31.028Z,5.90
2022-11-24T18:41:57.647Z,6.33
2022-11-24T18:44:24.232Z,6.93
2022-11-24T18:46:50.872Z,5.73
2022-11-24T18:49:17.566Z,5.93
2022-11-24T18:51:44.272Z,6.80
2022-11-24T18:54:10.932Z,6.73
2022-11-24T18:56:37.637Z,5.40
2022-11-24T18:59:04.219Z,5.60
2022-11-24T19:01:31.146Z,4.80
2022-11-24T19:04:01.671Z,5.27
2022-11-24T19:06:32.660Z,6.83
2022-11-24T19:09:08.247Z,7.07
2022-11-24T19:11:37.735Z,7.20
2022-11-24T19:14:06.831Z,6.90
2022-11-24T19:16:34.160Z,6.57
2022-11-24T19:19:02.509Z,5.60
2022-11-24T19:21:32.048Z,6.00
2022-11-24T19:24:04.504Z,20.17
2022-11-24T19:26:32.670Z,26.97
2022-11-24T19:28:59.320Z,10.00
2022-11-24T19:31:26.175Z,7.93
2022-11-24T19:33:54.594Z,7.20
2022-11-24T19:36:22.496Z,8.03
2022-11-24T19:38:54.218Z,7.50
2022-11-24T19:41:23.141Z,7.40
2022-11-24T19:43:54.553Z,6.67
2022-11-24T19:46:23.186Z,6.87
2022-11-24T19:48:54.007Z,6.63
2022-11-24T19:51:23.027Z,7.07
2022-11-24T19:53:49.670Z,7.00
2022-11-24T19:56:21.429Z,7.80
2022-11-24T19:58:48.731Z,7.20
2022-11-24T20:01:18.127Z,9.10
2022-11-24T20:03:46.654Z,7.67
2022-11-24T20:06:15.329Z,11.20
2022-11-24T20:08:43.315Z,8.77
2022-11-24T20:11:15.893Z,8.13
2022-11-24T20:13:44.536Z,8.20
2022-11-24T20:16:14.046Z,6.93
2022-11-24T20:18:43.847Z,7.63
2022-11-24T20:21:18.883Z,7.83
2022-11-24T20:23:51.472Z,7.70
2022-11-24T20:26:20.423Z,8.23
2022-11-24T20:28:47.587Z,7.17
2022-11-24T20:31:23.305Z,8.67
2022-11-24T20:33:50.291Z,8.03
2022-11-24T20:36:20.176Z,7.13
2022-11-24T20:38:48.166Z,7.87
2022-11-24T20:41:18.113Z,9.63
2022-11-24T20:43:45.667Z,7.23
2022-11-24T20:46:23.545Z,8.23
2022-11-24T20:48:51.312Z,7.97
2022-11-24T20:51:21.509Z,6.60
2022-11-24T20:53:52.760Z,8.67
2022-11-24T20:56:22.591Z,8.00
2022-11-24T20:58:49.810Z,7.90
2022-11-24T21:01:19.480Z,7.93
2022-11-24T21:03:50.943Z,7.17
2022-11-24T21:06:17.730Z,7.50
2022-11-24T21:08:45.551Z,8.10
2022-11-24T21:11:13.889Z,6.93
2022-11-24T21:13:42.708Z,8.10
2022-11-24T21:16:15.314Z,8.20
2022-11-24T21:18:43.241Z,8.80
2022-11-24T21:21:10.188Z,8.70
2022-11-24T21:23:37.237Z,8.00
2022-11-24T21:26:07.386Z,8.13
2022-11-24T21:28:35.765Z,9.23
2022-11-24T21:31:07.452Z,8.90
2022-11-24T21:33:34.532Z,9.67
2022-11-24T21:36:05.489Z,8.53
2022-11-24T21:38:32.459Z,8.70
2022-11-24T21:41:04.258Z,9.73
2022-11-24T21:43:32.256Z,9.50
2022-11-24T21:46:07.350Z,8.93
2022-11-24T21:48:35.227Z,10.30
2022-11-24T21:51:04.098Z,8.57
2022-11-24T21:53:32.774Z,8.60
2022-11-24T21:56:09.764Z,10.40
2022-11-24T21:58:36.582Z,9.20
2022-11-24T22:01:05.141Z,10.03
2022-11-24T22:03:31.836Z,9.50
2022-11-24T22:05:59.723Z,10.47
2022-11-24T22:08:28.195Z,9.80
2022-11-24T22:11:03.131Z,9.37
2022-11-24T22:13:29.954Z,10.47
2022-11-24T22:16:08.455Z,9.80
2022-11-24T22:18:37.944Z,11.63
2022-11-24T22:21:06.376Z,10.60
2022-11-24T22:23:34.669Z,14.40
2022-11-24T22:26:16.050Z,13.20
2022-11-24T22:28:44.620Z,11.97
2022-11-24T22:31:14.813Z,11.83
2022-11-24T22:33:42.155Z,12.30
2022-11-24T22:36:10.506Z,13.40
2022-11-24T22:38:37.526Z,11.77
2022-11-24T22:41:09.333Z,12.67
2022-11-24T22:43:37.408Z,11.53
2022-11-24T22:46:10.813Z,11.40
2022-11-24T22:48:38.192Z,12.07
2022-11-24T22:51:10.618Z,11.40
2022-11-24T22:53:37.993Z,11.60
2022-11-24T22:56:11.827Z,10.67
2022-11-24T22:58:39.763Z,10.60
2022-11-24T23:01:11.362Z,11.00
2022-11-24T23:03:38.722Z,11.37
2022-11-24T23:06:11.216Z,10.90
2022-11-24T23:08:37.940Z,10.43
2022-11-24T23:11:10.862Z,10.20
2022-11-24T23:13:37.832Z,9.60
2022-11-24T23:16:06.603Z,10.50
2022-11-24T23:18:34.167Z,11.07
2022-11-24T23:21:28.306Z,11.50
2022-11-24T23:23:55.591Z,10.23
2022-11-24T23:26:37.874Z,10.33
2022-11-24T23:29:05.322Z,10.80
2022-11-24T23:31:32.712Z,10.07
2022-11-24T23:34:01.615Z,9.60
2022-11-24T23:36:29.498Z,10.10
2022-11-24T23:38:56.581Z,9.57
2022-11-24T23:41:25.365Z,10.13
2022-11-24T23:43:52.544Z,10.20
2022-11-24T23:46:22.214Z,10.70
2022-11-24T23:48:50.318Z,10.77
2022-11-24T23:51:22.776Z,10.70
2022-11-24T23:53:49.880Z,13.63
2022-11-24T23:56:19.542Z,10.83
2022-11-24T23:58:46.834Z,10.13
